createdAt,value
2017-12-23T00:03:11.662Z,83.50
2017-12-23T00:05:39.233Z,84.00
2017-12-23T00:08:07.022Z,83.90
2017-12-23T00:10:35.414Z,83.60
2017-12-23T00:13:03.006Z,83.60
2017-12-23T00:15:30.601Z,83.30
2017-12-23T00:17:58.145Z,83.50
2017-12-23T00:20:27.733Z,83.80
2017-12-23T00:22:55.314Z,83.80
2017-12-23T00:25:22.907Z,83.80
2017-12-23T00:27:50.547Z,83.80
2017-12-23T00:30:19.166Z,83.70
2017-12-23T00:32:46.823Z,84.20
2017-12-23T00:35:14.430Z,83.60
2017-12-23T00:37:42.398Z,83.60
2017-12-23T00:40:09.995Z,83.90
2017-12-23T00:42:37.579Z,83.90
2017-12-23T00:45:05.212Z,84.00
2017-12-23T00:47:33.626Z,83.90
2017-12-23T00:50:01.231Z,83.80
2017-12-23T00:52:28.805Z,84.10
2017-12-23T00:54:57.188Z,83.70
2017-12-23T00:57:24.771Z,83.60
2017-12-23T00:59:52.410Z,83.60
2017-12-23T01:02:20.760Z,83.80
2017-12-23T01:04:48.724Z,83.70
2017-12-23T01:07:16.305Z,83.70
2017-12-23T01:09:45.388Z,83.80
2017-12-23T01:12:13.001Z,83.80
2017-12-23T01:14:40.579Z,84.00
2017-12-23T01:17:08.203Z,84.50
2017-12-23T01:19:35.780Z,84.50
2017-12-23T01:22:04.306Z,84.40
2017-12-23T01:24:31.891Z,84.40
2017-12-23T01:26:59.777Z,84.50
2017-12-23T01:29:28.152Z,84.60
2017-12-23T01:31:55.733Z,84.50
2017-12-23T01:34:24.117Z,84.50
2017-12-23T01:36:51.705Z,84.50
2017-12-23T01:39:19.337Z,84.50
2017-12-23T01:41:47.216Z,84.60
2017-12-23T01:44:15.163Z,84.60
2017-12-23T01:46:42.749Z,84.60
2017-12-23T01:49:10.353Z,84.60
2017-12-23T01:51:37.976Z,84.60
2017-12-23T01:54:05.541Z,84.60
2017-12-23T01:56:33.162Z,84.70
2017-12-23T01:59:01.510Z,84.70
2017-12-23T02:01:29.146Z,84.70
2017-12-23T02:03:56.733Z,84.70
2017-12-23T02:06:24.318Z,84.80
2017-12-23T02:08:51.947Z,84.70
2017-12-23T02:11:19.514Z,84.70
2017-12-23T02:13:47.545Z,84.70
2017-12-23T02:16:15.126Z,84.80
2017-12-23T02:18:42.695Z,84.70
2017-12-23T02:21:10.301Z,84.70
2017-12-23T02:23:37.867Z,84.70
2017-12-23T02:26:06.502Z,84.70
2017-12-23T02:28:34.078Z,84.70
2017-12-23T02:31:02.031Z,84.70
2017-12-23T02:33:29.730Z,84.70
2017-12-23T02:35:58.114Z,84.80
2017-12-23T02:38:25.924Z,84.70
2017-12-23T02:40:53.518Z,84.70
2017-12-23T02:43:21.138Z,84.70
2017-12-23T02:45:48.729Z,85.30
2017-12-23T02:48:16.865Z,84.80
2017-12-23T02:50:44.446Z,84.70
2017-12-23T02:53:12.018Z,84.70
2017-12-23T02:55:39.631Z,84.90
2017-12-23T02:58:07.229Z,84.90
2017-12-23T03:00:34.856Z,84.80
2017-12-23T03:03:02.436Z,84.80
2017-12-23T03:05:30.327Z,84.80
2017-12-23T03:07:57.902Z,84.80
2017-12-23T03:10:25.473Z,84.80
2017-12-23T03:12:53.854Z,84.80
2017-12-23T03:15:21.428Z,84.80
2017-12-23T03:17:49.798Z,84.80
2017-12-23T03:20:17.398Z,84.80
2017-12-23T03:22:45.011Z,84.80
2017-12-23T03:25:13.349Z,85.40
2017-12-23T03:27:41.321Z,84.80
2017-12-23T03:30:08.894Z,84.90
2017-12-23T03:32:37.977Z,84.80
2017-12-23T03:35:05.585Z,84.80
2017-12-23T03:37:33.935Z,84.80
2017-12-23T03:40:02.297Z,84.80
2017-12-23T03:42:29.871Z,84.80
2017-12-23T03:44:58.992Z,84.80
2017-12-23T03:47:26.568Z,84.80
2017-12-23T03:49:54.434Z,84.90
2017-12-23T03:52:22.010Z,85.10
2017-12-23T03:54:49.594Z,84.90
2017-12-23T03:57:17.661Z,85.20
2017-12-23T03:59:45.245Z,85.40
2017-12-23T04:02:13.649Z,86.40
2017-12-23T04:04:41.277Z,85.70
2017-12-23T04:07:10.873Z,86.00
2017-12-23T04:09:38.466Z,86.00
2017-12-23T04:12:06.046Z,86.70
2017-12-23T04:14:33.666Z,86.10
2017-12-23T04:17:01.281Z,86.10
2017-12-23T04:19:28.904Z,86.20
2017-12-23T04:21:56.669Z,86.20
2017-12-23T04:24:25.310Z,86.10
2017-12-23T04:26:52.912Z,86.10
2017-12-23T04:29:20.498Z,86.10
2017-12-23T04:31:48.138Z,86.10
2017-12-23T04:34:16.482Z,86.30
2017-12-23T04:36:44.113Z,86.30
2017-12-23T04:39:11.694Z,86.10
2017-12-23T04:41:39.373Z,86.10
2017-12-23T04:44:06.952Z,86.20
2017-12-23T04:46:34.867Z,86.10
2017-12-23T04:49:02.449Z,86.10
2017-12-23T04:51:30.017Z,86.20
2017-12-23T04:53:57.645Z,86.10
2017-12-23T04:56:25.224Z,86.20
2017-12-23T04:58:54.404Z,86.30
2017-12-23T05:01:21.984Z,86.20
2017-12-23T05:03:49.929Z,86.40
2017-12-23T05:06:17.506Z,86.30
2017-12-23T05:08:45.078Z,86.20
2017-12-23T05:11:12.706Z,86.30
2017-12-23T05:13:40.300Z,86.30
2017-12-23T05:16:07.913Z,86.40
2017-12-23T05:18:35.758Z,86.40
2017-12-23T05:21:03.761Z,86.50
2017-12-23T05:23:31.337Z,86.50
2017-12-23T05:25:58.923Z,86.50
2017-12-23T05:28:27.318Z,86.50
2017-12-23T05:30:54.908Z,86.50
2017-12-23T05:33:22.534Z,86.50
2017-12-23T05:35:50.864Z,86.60
2017-12-23T05:38:18.507Z,86.60
2017-12-23T05:40:46.076Z,86.60
2017-12-23T05:43:14.127Z,86.60
2017-12-23T05:45:41.710Z,86.50
2017-12-23T05:48:09.292Z,86.60
2017-12-23T05:50:37.076Z,86.50
2017-12-23T05:53:04.658Z,86.70
2017-12-23T05:55:32.452Z,86.60
2017-12-23T05:58:00.033Z,86.60
2017-12-23T06:00:27.993Z,86.60
2017-12-23T06:02:55.561Z,86.70
2017-12-23T06:05:23.137Z,86.70
2017-12-23T06:07:50.755Z,86.60
2017-12-23T06:10:18.313Z,86.20
2017-12-23T06:12:45.951Z,86.60
2017-12-23T06:15:13.530Z,86.60
2017-12-23T06:17:41.574Z,86.50
2017-12-23T06:20:09.160Z,86.60
2017-12-23T06:22:36.735Z,86.60
2017-12-23T06:25:04.350Z,86.60
2017-12-23T06:27:31.921Z,86.70
2017-12-23T06:29:59.538Z,86.60
2017-12-23T06:32:27.125Z,86.50
2017-12-23T06:34:54.999Z,86.50
2017-12-23T06:37:22.758Z,86.60
2017-12-23T06:39:51.120Z,86.40
2017-12-23T06:42:18.736Z,86.40
2017-12-23T06:44:46.304Z,86.40
2017-12-23T06:47:13.926Z,86.30
2017-12-23T06:49:41.581Z,86.30
2017-12-23T06:52:10.261Z,86.30
2017-12-23T06:54:37.858Z,86.30
2017-12-23T06:57:05.429Z,86.20
2017-12-23T06:59:33.310Z,86.30
2017-12-23T07:02:00.901Z,86.60
2017-12-23T07:04:28.547Z,86.60
2017-12-23T07:06:56.121Z,86.60
2017-12-23T07:09:24.762Z,86.70
2017-12-23T07:11:52.336Z,86.70
2017-12-23T07:14:19.901Z,86.70
2017-12-23T07:16:47.654Z,86.60
2017-12-23T07:19:15.255Z,86.50
2017-12-23T07:21:43.644Z,86.30
2017-12-23T07:24:11.235Z,86.30
2017-12-23T07:26:39.213Z,86.40
2017-12-23T07:29:06.786Z,86.40
2017-12-23T07:31:34.671Z,86.40
2017-12-23T07:34:02.294Z,86.40
2017-12-23T07:36:29.924Z,86.40
2017-12-23T07:38:57.549Z,86.60
2017-12-23T07:41:25.269Z,86.60
2017-12-23T07:43:53.254Z,86.40
2017-12-23T07:46:20.842Z,86.30
2017-12-23T07:48:49.933Z,86.30
2017-12-23T07:51:17.562Z,86.30
2017-12-23T07:53:45.129Z,86.30
2017-12-23T07:56:12.759Z,86.10
2017-12-23T07:58:40.343Z,85.90
2017-12-23T08:01:08.325Z,85.70
2017-12-23T08:03:35.897Z,85.50
2017-12-23T08:06:03.483Z,85.50
2017-12-23T08:08:31.865Z,85.40
2017-12-23T08:10:59.441Z,85.40
2017-12-23T08:13:27.108Z,85.40
2017-12-23T08:15:54.701Z,85.40
2017-12-23T08:18:22.550Z,85.10
2017-12-23T08:20:50.118Z,84.90
2017-12-23T08:23:17.990Z,85.00
2017-12-23T08:25:45.630Z,84.70
2017-12-23T08:28:13.279Z,84.90
2017-12-23T08:30:40.925Z,84.80
2017-12-23T08:33:08.514Z,84.90
2017-12-23T08:35:36.134Z,84.70
2017-12-23T08:38:04.503Z,84.30
2017-12-23T08:40:32.266Z,84.50
2017-12-23T08:42:59.846Z,84.20
2017-12-23T08:45:27.782Z,84.40
2017-12-23T08:47:55.369Z,84.20
2017-12-23T08:50:23.765Z,84.00
2017-12-23T08:52:51.399Z,84.00
2017-12-23T08:55:18.993Z,84.00
2017-12-23T08:57:46.705Z,83.90
2017-12-23T09:00:14.289Z,84.00
2017-12-23T09:02:41.919Z,84.10
2017-12-23T09:05:09.502Z,84.40
2017-12-23T09:07:37.447Z,83.90
2017-12-23T09:10:05.062Z,83.80
2017-12-23T09:12:32.643Z,84.00
2017-12-23T09:15:00.278Z,83.50
2017-12-23T09:17:28.629Z,83.50
2017-12-23T09:19:56.261Z,83.40
2017-12-23T09:22:23.890Z,83.50
2017-12-23T09:24:51.523Z,83.50
2017-12-23T09:27:20.048Z,83.40
2017-12-23T09:29:48.042Z,83.40
2017-12-23T09:32:15.640Z,83.20
2017-12-23T09:34:43.218Z,83.30
2017-12-23T09:37:10.941Z,83.10
2017-12-23T09:39:38.533Z,83.20
2017-12-23T09:42:06.917Z,83.30
2017-12-23T09:44:34.622Z,83.30
2017-12-23T09:47:02.246Z,83.10
2017-12-23T09:49:29.837Z,83.10
2017-12-23T09:51:58.025Z,83.10
2017-12-23T09:54:25.606Z,83.10
2017-12-23T09:56:54.706Z,83.20
2017-12-23T09:59:22.310Z,83.20
2017-12-23T10:01:49.883Z,83.20
2017-12-23T10:04:17.509Z,83.10
2017-12-23T10:06:45.078Z,82.40
2017-12-23T10:09:13.095Z,82.30
2017-12-23T10:11:40.702Z,82.70
2017-12-23T10:14:08.448Z,83.00
2017-12-23T10:16:37.116Z,82.60
2017-12-23T10:19:04.706Z,82.60
2017-12-23T10:21:32.334Z,82.70
2017-12-23T10:23:59.938Z,82.50
2017-12-23T10:26:27.654Z,82.60
2017-12-23T10:28:55.258Z,82.30
2017-12-23T10:31:22.854Z,82.30
2017-12-23T10:33:50.471Z,82.40
2017-12-23T10:36:18.327Z,82.40
2017-12-23T10:38:45.958Z,82.40
2017-12-23T10:41:13.553Z,82.50
2017-12-23T10:43:43.010Z,82.60
2017-12-23T10:46:10.598Z,82.40
2017-12-23T10:48:38.173Z,82.60
2017-12-23T10:51:06.837Z,82.60
2017-12-23T10:53:34.412Z,82.50
2017-12-23T10:56:02.340Z,82.60
2017-12-23T10:58:29.917Z,82.60
2017-12-23T11:00:57.509Z,82.60
2017-12-23T11:03:26.626Z,82.60
2017-12-23T11:05:54.244Z,82.60
2017-12-23T11:08:21.878Z,82.60
2017-12-23T11:10:49.462Z,82.60
2017-12-23T11:13:17.080Z,82.60
2017-12-23T11:15:44.659Z,82.60
2017-12-23T11:18:12.535Z,82.70
2017-12-23T11:20:40.121Z,82.60
2017-12-23T11:23:07.739Z,82.80
2017-12-23T11:25:35.426Z,82.60
2017-12-23T11:28:03.021Z,82.80
2017-12-23T11:30:31.402Z,82.70
2017-12-23T11:32:59.001Z,82.70
2017-12-23T11:35:26.634Z,82.70
2017-12-23T11:37:54.207Z,82.80
2017-12-23T11:40:22.117Z,82.80
2017-12-23T11:42:49.744Z,82.80
2017-12-23T11:45:17.322Z,82.90
2017-12-23T11:47:44.947Z,82.90
2017-12-23T11:50:12.520Z,82.90
2017-12-23T11:52:40.171Z,82.90
2017-12-23T11:55:07.736Z,82.80
2017-12-23T11:57:35.370Z,82.80
2017-12-23T12:00:03.697Z,82.80
2017-12-23T12:02:31.565Z,82.70
2017-12-23T12:04:59.367Z,82.80
2017-12-23T12:07:27.853Z,83.20
2017-12-23T12:09:56.259Z,82.80
2017-12-23T12:12:23.841Z,82.80
2017-12-23T12:14:51.452Z,82.80
2017-12-23T12:17:19.816Z,82.70
2017-12-23T12:19:47.465Z,82.80
2017-12-23T12:22:15.046Z,83.40
2017-12-23T12:24:43.098Z,83.40
2017-12-23T12:27:10.710Z,83.00
2017-12-23T12:29:38.286Z,83.70
2017-12-23T12:32:05.934Z,83.60
2017-12-23T12:34:33.500Z,83.70
2017-12-23T12:37:01.100Z,83.60
2017-12-23T12:39:28.681Z,83.70
2017-12-23T12:41:57.068Z,83.80
2017-12-23T12:44:24.659Z,83.70
2017-12-23T12:46:52.243Z,83.60
2017-12-23T12:49:19.866Z,83.60
2017-12-23T12:51:47.554Z,83.50
2017-12-23T12:54:15.174Z,83.20
2017-12-23T12:56:42.775Z,83.50
2017-12-23T12:59:10.761Z,83.10
2017-12-23T13:01:38.355Z,83.20
2017-12-23T13:04:05.933Z,83.60
2017-12-23T13:06:33.570Z,83.60
2017-12-23T13:09:01.150Z,83.80
2017-12-23T13:11:28.760Z,83.50
2017-12-23T13:13:56.348Z,83.50
2017-12-23T13:16:23.980Z,83.50
2017-12-23T13:18:51.550Z,83.70
2017-12-23T13:21:19.501Z,83.50
2017-12-23T13:23:47.095Z,83.70
2017-12-23T13:26:14.658Z,83.60
2017-12-23T13:28:42.308Z,83.70
2017-12-23T13:31:09.890Z,83.70
2017-12-23T13:33:37.822Z,83.70
2017-12-23T13:36:05.406Z,83.80
2017-12-23T13:38:33.159Z,83.60
2017-12-23T13:41:00.949Z,83.40
2017-12-23T13:43:28.725Z,83.60
2017-12-23T13:45:56.334Z,83.70
2017-12-23T13:48:23.905Z,83.70
2017-12-23T13:50:51.874Z,84.10
2017-12-23T13:53:19.446Z,83.90
2017-12-23T13:55:47.037Z,84.20
2017-12-23T13:58:14.655Z,84.30
2017-12-23T14:00:42.271Z,84.00
2017-12-23T14:03:09.861Z,84.00
2017-12-23T14:05:37.455Z,84.20
2017-12-23T14:08:05.871Z,84.00
2017-12-23T14:10:33.453Z,84.00
2017-12-23T14:13:01.851Z,84.30
2017-12-23T14:15:29.442Z,84.30
2017-12-23T14:17:57.019Z,84.00
2017-12-23T14:20:24.660Z,84.40
2017-12-23T14:22:53.013Z,84.30
2017-12-23T14:25:22.169Z,84.10
2017-12-23T14:27:49.746Z,84.10
2017-12-23T14:30:17.350Z,84.10
2017-12-23T14:32:45.679Z,84.20
2017-12-23T14:35:13.592Z,84.10
2017-12-23T14:37:41.194Z,84.10
2017-12-23T14:40:08.920Z,84.10
2017-12-23T14:42:36.538Z,84.30
2017-12-23T14:45:04.113Z,84.30
2017-12-23T14:47:31.726Z,84.20
2017-12-23T14:49:59.294Z,84.40
2017-12-23T14:52:26.920Z,84.60
2017-12-23T14:54:55.247Z,84.30
2017-12-23T14:57:23.242Z,84.20
2017-12-23T14:59:50.834Z,84.30
2017-12-23T15:02:18.412Z,84.10
2017-12-23T15:04:46.274Z,84.30
2017-12-23T15:07:13.842Z,84.30
2017-12-23T15:09:41.510Z,84.40
2017-12-23T15:12:09.084Z,84.30
2017-12-23T15:14:37.051Z,84.30
2017-12-23T15:17:04.636Z,84.30
2017-12-23T15:19:32.222Z,84.30
2017-12-23T15:22:00.610Z,84.20
2017-12-23T15:24:28.191Z,84.30
2017-12-23T15:26:56.066Z,84.30
2017-12-23T15:29:23.686Z,84.30
2017-12-23T15:31:52.034Z,84.40
2017-12-23T15:34:19.656Z,84.30
2017-12-23T15:36:47.238Z,84.20
2017-12-23T15:39:14.865Z,84.10
2017-12-23T15:41:42.544Z,84.20
2017-12-23T15:44:10.442Z,84.30
2017-12-23T15:46:38.149Z,84.30
2017-12-23T15:49:06.490Z,84.60
2017-12-23T15:51:34.118Z,84.50
2017-12-23T15:54:01.695Z,84.30
2017-12-23T15:56:29.770Z,84.20
2017-12-23T15:58:57.364Z,84.10
2017-12-23T16:01:24.931Z,84.10
2017-12-23T16:03:53.306Z,84.40
2017-12-23T16:06:20.906Z,84.40
2017-12-23T16:08:48.897Z,84.10
2017-12-23T16:11:16.508Z,84.30
2017-12-23T16:13:44.165Z,84.30
2017-12-23T16:16:11.785Z,83.80
2017-12-23T16:18:39.370Z,84.10
2017-12-23T16:21:06.998Z,83.90
2017-12-23T16:23:34.582Z,84.30
2017-12-23T16:26:02.522Z,83.70
2017-12-23T16:28:30.113Z,83.20
2017-12-23T16:30:59.219Z,83.60
2017-12-23T16:33:26.933Z,83.50
2017-12-23T16:35:54.545Z,83.50
2017-12-23T16:38:22.477Z,83.20
2017-12-23T16:40:50.056Z,83.70
2017-12-23T16:43:17.644Z,83.40
2017-12-23T16:45:46.063Z,83.30
2017-12-23T16:48:13.643Z,83.20
2017-12-23T16:50:41.242Z,83.40
2017-12-23T16:53:09.698Z,83.20
2017-12-23T16:55:37.622Z,83.20
2017-12-23T16:58:05.190Z,83.60
2017-12-23T17:00:32.846Z,83.70
2017-12-23T17:03:00.466Z,83.30
2017-12-23T17:05:28.071Z,83.20
2017-12-23T17:07:55.705Z,83.20
2017-12-23T17:10:23.367Z,83.20
2017-12-23T17:12:50.941Z,83.20
2017-12-23T17:15:18.552Z,83.20
2017-12-23T17:17:46.134Z,83.20
2017-12-23T17:20:14.974Z,83.30
2017-12-23T17:22:42.549Z,83.20
2017-12-23T17:25:10.160Z,83.20
2017-12-23T17:27:37.897Z,82.40
2017-12-23T17:30:27.410Z,83.20
2017-12-23T17:32:55.021Z,82.40
2017-12-23T17:35:22.602Z,82.50
2017-12-23T17:37:50.521Z,82.40
2017-12-23T17:40:18.109Z,82.40
2017-12-23T17:42:45.690Z,82.40
2017-12-23T17:45:14.229Z,82.50
2017-12-23T17:47:41.820Z,82.40
2017-12-23T17:50:09.865Z,82.40
2017-12-23T17:52:37.433Z,82.50
2017-12-23T17:55:05.117Z,82.50
2017-12-23T17:57:33.533Z,82.50
2017-12-23T18:00:01.225Z,82.40
2017-12-23T18:02:28.833Z,82.50
2017-12-23T18:04:57.190Z,82.50
2017-12-23T18:07:25.965Z,82.40
2017-12-23T18:09:53.671Z,82.50
2017-12-23T18:12:21.260Z,82.50
2017-12-23T18:14:48.957Z,82.50
2017-12-23T18:17:16.537Z,82.50
2017-12-23T18:19:44.185Z,82.40
2017-12-23T18:22:11.767Z,82.50
2017-12-23T18:24:39.788Z,82.50
2017-12-23T18:27:07.382Z,83.20
2017-12-23T18:29:35.055Z,83.20
2017-12-23T18:32:02.643Z,83.20
2017-12-23T18:34:30.218Z,83.20
2017-12-23T18:36:58.326Z,83.20
2017-12-23T18:39:26.680Z,83.80
2017-12-23T18:41:54.295Z,83.20
2017-12-23T18:44:21.931Z,83.20
2017-12-23T18:46:50.276Z,83.30
2017-12-23T18:49:17.914Z,83.20
2017-12-23T18:51:45.488Z,83.20
2017-12-23T18:54:13.530Z,83.20
2017-12-23T18:56:41.108Z,83.20
2017-12-23T18:59:08.669Z,83.20
2017-12-23T19:01:36.307Z,83.20
2017-12-23T19:04:03.937Z,83.20
2017-12-23T19:06:32.692Z,83.30
2017-12-23T19:09:00.281Z,83.20
2017-12-23T19:11:27.857Z,83.20
2017-12-23T19:13:56.220Z,83.20
2017-12-23T19:16:35.530Z,83.20
2017-12-23T19:19:03.509Z,83.20
2017-12-23T19:21:31.116Z,83.20
2017-12-23T19:23:58.693Z,83.20
2017-12-23T19:26:26.295Z,83.20
2017-12-23T19:28:53.870Z,83.20
2017-12-23T19:31:21.817Z,83.20
2017-12-23T19:33:49.407Z,83.20
2017-12-23T19:36:16.991Z,83.20
2017-12-23T19:38:44.622Z,83.20
2017-12-23T19:41:12.952Z,83.80
2017-12-23T19:43:40.906Z,83.20
2017-12-23T19:46:08.487Z,83.20
2017-12-23T19:48:36.074Z,83.20
2017-12-23T19:51:03.707Z,83.10
2017-12-23T19:53:31.292Z,83.20
2017-12-23T19:56:01.096Z,83.20
2017-12-23T19:58:28.665Z,83.10
2017-12-23T20:00:57.164Z,83.20
2017-12-23T20:03:25.102Z,83.10
2017-12-23T20:05:52.688Z,83.10
2017-12-23T20:08:20.294Z,83.20
2017-12-23T20:10:48.105Z,83.20
2017-12-23T20:13:15.674Z,83.20
2017-12-23T20:15:43.543Z,83.20
2017-12-23T20:18:11.122Z,83.20
2017-12-23T20:20:39.615Z,83.20
2017-12-23T20:23:07.290Z,83.70
2017-12-23T20:25:34.872Z,83.20
2017-12-23T20:28:02.516Z,83.20
2017-12-23T20:30:30.077Z,83.20
2017-12-23T20:32:58.066Z,83.20
2017-12-23T20:35:25.660Z,83.20
2017-12-23T20:37:53.251Z,83.10
2017-12-23T20:40:20.981Z,83.20
2017-12-23T20:42:48.570Z,83.10
2017-12-23T20:45:16.635Z,83.10
2017-12-23T20:47:44.166Z,83.10
2017-12-23T20:50:11.758Z,83.10
2017-12-23T20:52:39.391Z,83.20
2017-12-23T20:55:07.742Z,83.10
2017-12-23T20:57:35.379Z,83.10
2017-12-23T21:00:03.042Z,83.10
2017-12-23T21:02:32.026Z,83.20
2017-12-23T21:04:59.594Z,83.10
2017-12-23T21:07:27.167Z,83.20
2017-12-23T21:09:54.790Z,83.10
2017-12-23T21:12:22.371Z,83.20
2017-12-23T21:14:50.436Z,83.10
2017-12-23T21:17:18.178Z,83.20
2017-12-23T21:19:46.534Z,83.20
2017-12-23T21:22:14.701Z,83.10
2017-12-23T21:24:42.301Z,83.20
2017-12-23T21:27:10.203Z,83.10
2017-12-23T21:29:37.777Z,83.10
2017-12-23T21:32:05.371Z,83.20
2017-12-23T21:34:34.210Z,83.10
2017-12-23T21:37:01.798Z,83.10
2017-12-23T21:39:30.216Z,83.10
2017-12-23T21:41:57.798Z,83.10
2017-12-23T21:44:25.694Z,83.10
2017-12-23T21:46:53.279Z,83.10
2017-12-23T21:49:20.887Z,83.10
2017-12-23T21:51:48.670Z,83.10
2017-12-23T21:54:16.274Z,83.10
2017-12-23T21:56:43.887Z,83.10
2017-12-23T21:59:11.478Z,83.10
2017-12-23T22:01:39.514Z,83.10
2017-12-23T22:04:07.090Z,83.80
2017-12-23T22:06:34.696Z,83.10
2017-12-23T22:09:02.516Z,83.10
2017-12-23T22:11:30.089Z,83.10
2017-12-23T22:13:57.707Z,83.10
2017-12-23T22:16:25.299Z,83.10
2017-12-23T22:18:52.909Z,83.10
2017-12-23T22:21:20.473Z,83.10
2017-12-23T22:23:48.333Z,83.10
2017-12-23T22:26:15.947Z,83.10
2017-12-23T22:28:43.568Z,83.10
2017-12-23T22:31:11.235Z,83.10
2017-12-23T22:33:38.867Z,83.10
2017-12-23T22:36:06.479Z,83.00
2017-12-23T22:38:34.059Z,83.00
2017-12-23T22:41:02.118Z,83.00
2017-12-23T22:43:29.715Z,83.00
2017-12-23T22:45:57.309Z,83.00
2017-12-23T22:48:24.927Z,83.00
2017-12-23T22:50:53.294Z,83.10
2017-12-23T22:53:22.874Z,83.00
2017-12-23T22:55:50.458Z,83.00
2017-12-23T22:58:18.042Z,82.90
2017-12-23T23:00:50.157Z,82.90
2017-12-23T23:03:17.751Z,82.90
2017-12-23T23:05:45.383Z,82.90
2017-12-23T23:08:12.967Z,82.80
2017-12-23T23:10:40.887Z,82.80
2017-12-23T23:13:08.455Z,82.80
2017-12-23T23:15:36.069Z,82.80
2017-12-23T23:18:03.683Z,82.80
2017-12-23T23:20:31.309Z,82.70
2017-12-23T23:23:01.305Z,82.70
2017-12-23T23:25:28.870Z,82.80
2017-12-23T23:27:57.246Z,83.40
2017-12-23T23:30:24.885Z,83.30
2017-12-23T23:32:52.486Z,83.10
2017-12-23T23:35:20.515Z,83.00
2017-12-23T23:37:48.116Z,82.70
2017-12-23T23:40:15.717Z,82.90
2017-12-23T23:42:43.319Z,82.90
2017-12-23T23:45:11.680Z,83.30
2017-12-23T23:47:39.531Z,83.20
2017-12-23T23:50:07.090Z,83.20
2017-12-23T23:52:34.658Z,83.10
2017-12-23T23:55:02.268Z,83.30
2017-12-23T23:57:29.846Z,83.30
2017-12-23T23:59:57.925Z,83.30
